createdAt,value
2023-04-07T00:00:43.571Z,95073.97
2023-04-07T00:03:11.613Z,95066.41
2023-04-07T00:05:39.705Z,95073.81
2023-04-07T00:08:07.688Z,95072.19
2023-04-07T00:10:35.958Z,95076.88
2023-04-07T00:13:05.397Z,95061.88
2023-04-07T00:15:33.445Z,95075.25
2023-04-07T00:18:01.503Z,95081.38
2023-04-07T00:20:29.652Z,95065.47
2023-04-07T00:22:57.563Z,95074.22
2023-04-07T00:25:25.514Z,95069.34
2023-04-07T00:27:53.515Z,95070.38
2023-04-07T00:30:23.010Z,95064.19
2023-04-07T00:32:51.529Z,95055.16
2023-04-07T00:35:19.702Z,95073.69
2023-04-07T00:37:47.667Z,95054.22
2023-04-07T00:40:15.738Z,95025.75
2023-04-07T00:42:43.761Z,95003.06
2023-04-07T00:45:12.850Z,95067.72
2023-04-07T00:47:42.443Z,94927.28
2023-04-07T00:50:11.167Z,94919.66
2023-04-07T00:52:39.229Z,95067.09
2023-04-07T00:55:07.990Z,95064.31
2023-04-07T00:57:36.002Z,95050.78
2023-04-07T01:00:05.493Z,95017.31
2023-04-07T01:02:39.112Z,95051.69
2023-04-07T01:05:16.254Z,95043.91
2023-04-07T01:07:53.302Z,95047.81
2023-04-07T01:10:28.523Z,95046.84
2023-04-07T01:13:04.117Z,94887.22
2023-04-07T01:15:34.196Z,95057.22
2023-04-07T01:18:10.020Z,95060.84
2023-04-07T01:20:41.240Z,95060.38
2023-04-07T01:23:09.531Z,95058.59
2023-04-07T01:25:55.089Z,95064.00
2023-04-07T01:28:42.986Z,95042.09
2023-04-07T01:31:14.139Z,95057.59
2023-04-07T01:33:46.524Z,95054.41
2023-04-07T01:36:15.680Z,95055.25
2023-04-07T01:38:45.594Z,95005.84
2023-04-07T01:41:16.089Z,95049.72
2023-04-07T01:43:45.251Z,95050.84
2023-04-07T01:46:16.029Z,95047.06
2023-04-07T01:48:44.396Z,95046.81
2023-04-07T01:51:17.657Z,95047.06
2023-04-07T01:53:46.309Z,95040.69
2023-04-07T01:56:14.360Z,95034.91
2023-04-07T01:58:42.465Z,95045.19
2023-04-07T02:01:10.654Z,95034.91
2023-04-07T02:03:45.627Z,95021.50
2023-04-07T02:06:19.257Z,95026.00
2023-04-07T02:08:50.422Z,95036.88
2023-04-07T02:11:22.147Z,95037.34
2023-04-07T02:13:52.618Z,95025.97
2023-04-07T02:16:22.705Z,95039.91
2023-04-07T02:18:53.913Z,95037.44
2023-04-07T02:21:23.016Z,95028.16
2023-04-07T02:23:51.089Z,95034.44
2023-04-07T02:26:19.065Z,95039.69
2023-04-07T02:28:47.030Z,95035.69
2023-04-07T02:31:15.061Z,95035.09
2023-04-07T02:33:42.983Z,95027.41
2023-04-07T02:36:12.360Z,95049.09
2023-04-07T02:38:40.361Z,95035.09
2023-04-07T02:41:08.405Z,95040.13
2023-04-07T02:43:36.385Z,95045.63
2023-04-07T02:46:04.475Z,95035.97
2023-04-07T02:48:32.396Z,95043.66
2023-04-07T02:51:00.447Z,95046.25
2023-04-07T02:53:29.818Z,95051.91
2023-04-07T02:55:57.806Z,95037.66
2023-04-07T02:58:25.786Z,95037.91
2023-04-07T03:00:53.894Z,95037.84
2023-04-07T03:03:22.064Z,95044.97
2023-04-07T03:05:50.209Z,95043.94
2023-04-07T03:08:18.206Z,95011.97
2023-04-07T03:10:47.645Z,95036.09
2023-04-07T03:13:16.597Z,95049.03
2023-04-07T03:15:45.223Z,95035.25
2023-04-07T03:18:13.234Z,95046.56
2023-04-07T03:20:42.016Z,95042.00
2023-04-07T03:23:10.250Z,94993.66
2023-04-07T03:25:38.195Z,95047.31
2023-04-07T03:28:07.678Z,95038.50
2023-04-07T03:30:35.679Z,95034.28
2023-04-07T03:33:03.969Z,95033.72
2023-04-07T03:35:31.998Z,95035.16
2023-04-07T03:37:59.925Z,95036.78
2023-04-07T03:40:27.957Z,95036.78
2023-04-07T03:42:55.874Z,95038.69
2023-04-07T03:45:25.189Z,95026.78
2023-04-07T03:47:54.360Z,95049.31
2023-04-07T03:50:22.501Z,95020.28
2023-04-07T03:52:50.803Z,95047.53
2023-04-07T03:55:18.967Z,95052.88
2023-04-07T03:57:47.025Z,95054.19
2023-04-07T04:00:15.527Z,95057.88
2023-04-07T04:02:44.930Z,95029.91
2023-04-07T04:05:12.997Z,95060.84
2023-04-07T04:07:41.002Z,95056.97
2023-04-07T04:10:10.007Z,95071.78
2023-04-07T04:12:38.006Z,95065.25
2023-04-07T04:15:06.573Z,95043.72
2023-04-07T04:17:34.600Z,95068.59
2023-04-07T04:20:04.076Z,95065.72
2023-04-07T04:22:32.120Z,95072.41
2023-04-07T04:25:00.649Z,95071.31
2023-04-07T04:27:29.144Z,95080.03
2023-04-07T04:29:57.126Z,95068.31
2023-04-07T04:32:25.476Z,95084.47
2023-04-07T04:34:53.436Z,95080.97
2023-04-07T04:37:23.043Z,95081.16
2023-04-07T04:39:51.365Z,95085.88
2023-04-07T04:42:19.325Z,95090.03
2023-04-07T04:44:47.320Z,95093.00
2023-04-07T04:47:15.687Z,95091.41
2023-04-07T04:49:43.739Z,95047.59
2023-04-07T04:52:11.753Z,95088.88
2023-04-07T04:54:41.168Z,95089.34
2023-04-07T04:57:09.198Z,95096.16
2023-04-07T04:59:37.148Z,95102.72
2023-04-07T05:02:05.188Z,95100.81
2023-04-07T05:04:33.647Z,95094.94
2023-04-07T05:07:01.649Z,95105.72
2023-04-07T05:09:29.592Z,95105.69
2023-04-07T05:11:59.146Z,95102.88
2023-04-07T05:14:27.150Z,95098.03
2023-04-07T05:16:55.366Z,95090.13
2023-04-07T05:19:23.429Z,95117.31
2023-04-07T05:21:51.566Z,95113.41
2023-04-07T05:24:19.817Z,95120.53
2023-04-07T05:26:48.002Z,95115.44
2023-04-07T05:29:17.448Z,95117.28
2023-04-07T05:31:45.505Z,95120.25
2023-04-07T05:34:22.381Z,95105.16
2023-04-07T05:36:56.378Z,95114.00
2023-04-07T05:39:33.356Z,95047.13
2023-04-07T05:42:01.792Z,95132.00
2023-04-07T05:44:31.232Z,95128.03
2023-04-07T05:46:59.169Z,95119.38
2023-04-07T05:49:27.212Z,95114.88
2023-04-07T05:51:55.453Z,95107.03
2023-04-07T05:54:23.415Z,95123.03
2023-04-07T05:56:51.475Z,95122.28
2023-04-07T05:59:19.385Z,95123.13
2023-04-07T06:01:48.881Z,95131.38
2023-04-07T06:04:16.926Z,95059.09
2023-04-07T06:06:44.920Z,95122.50
2023-04-07T06:09:12.896Z,95123.31
2023-04-07T06:11:40.945Z,95119.41
2023-04-07T06:14:08.996Z,95082.13
2023-04-07T06:16:37.006Z,95116.97
2023-04-07T06:19:08.332Z,95116.88
2023-04-07T06:21:38.112Z,95086.31
2023-04-07T06:24:06.663Z,95115.47
2023-04-07T06:26:34.804Z,95117.63
2023-04-07T06:29:02.910Z,95107.44
2023-04-07T06:31:30.901Z,95105.50
2023-04-07T06:33:59.049Z,95087.88
2023-04-07T06:36:29.180Z,95106.00
2023-04-07T06:38:57.423Z,95111.03
2023-04-07T06:41:27.648Z,95111.63
2023-04-07T06:43:55.650Z,95116.69
2023-04-07T06:46:23.693Z,95092.88
2023-04-07T06:48:51.734Z,95112.94
2023-04-07T06:51:19.841Z,95107.34
2023-04-07T06:53:49.938Z,95100.38
2023-04-07T06:56:18.065Z,95098.94
2023-04-07T06:58:46.100Z,95108.47
2023-04-07T07:01:14.052Z,95111.88
2023-04-07T07:03:42.094Z,95110.16
2023-04-07T07:06:11.258Z,95117.97
2023-04-07T07:08:39.807Z,95109.84
2023-04-07T07:11:09.467Z,95120.25
2023-04-07T07:13:37.503Z,95108.25
2023-04-07T07:16:06.062Z,95117.03
2023-04-07T07:18:36.382Z,95109.91
2023-04-07T07:21:04.577Z,95114.72
2023-04-07T07:23:32.791Z,95085.78
2023-04-07T07:26:00.769Z,95123.59
2023-04-07T07:28:30.165Z,95122.28
2023-04-07T07:30:58.295Z,95125.84
2023-04-07T07:33:26.395Z,95133.44
2023-04-07T07:35:54.339Z,95131.00
2023-04-07T07:38:22.395Z,95132.22
2023-04-07T07:40:50.611Z,95138.56
2023-04-07T07:43:19.326Z,95142.03
2023-04-07T07:45:48.671Z,95145.19
2023-04-07T07:48:19.081Z,95138.88
2023-04-07T07:50:48.004Z,95128.44
2023-04-07T07:53:16.092Z,95141.34
2023-04-07T07:55:44.060Z,95137.25
2023-04-07T07:58:12.040Z,95122.25
2023-04-07T08:00:40.115Z,95127.91
2023-04-07T08:03:09.598Z,95127.13
2023-04-07T08:05:37.916Z,95129.28
2023-04-07T08:08:06.024Z,95111.38
2023-04-07T08:10:34.093Z,95123.31
2023-04-07T08:13:02.079Z,95134.78
2023-04-07T08:15:30.068Z,95134.91
2023-04-07T08:18:00.221Z,95134.78
2023-04-07T08:20:29.642Z,95134.78
2023-04-07T08:22:57.670Z,95140.16
2023-04-07T08:25:25.852Z,95123.78
2023-04-07T08:27:53.880Z,95127.13
2023-04-07T08:30:22.392Z,95139.47
2023-04-07T08:32:50.797Z,95140.56
2023-04-07T08:35:18.812Z,95131.56
2023-04-07T08:37:48.960Z,95132.00
2023-04-07T08:40:17.395Z,95134.38
2023-04-07T08:42:49.040Z,95081.19
2023-04-07T08:45:19.109Z,95132.00
2023-04-07T08:47:49.042Z,95115.38
2023-04-07T08:50:19.307Z,95117.63
2023-04-07T08:52:55.885Z,95126.84
2023-04-07T08:55:24.241Z,95124.25
2023-04-07T08:57:54.031Z,95124.81
2023-04-07T09:00:22.574Z,95132.38
2023-04-07T09:02:51.969Z,95129.28
2023-04-07T09:05:21.525Z,95131.38
2023-04-07T09:07:50.999Z,95125.06
2023-04-07T09:10:19.035Z,95134.13
2023-04-07T09:12:47.077Z,95086.34
2023-04-07T09:15:16.496Z,95141.88
2023-04-07T09:17:44.754Z,95143.56
2023-04-07T09:20:12.958Z,95120.63
2023-04-07T09:22:44.219Z,95113.72
2023-04-07T09:25:16.771Z,95127.44
2023-04-07T09:27:59.134Z,95127.44
2023-04-07T09:30:27.624Z,95126.13
2023-04-07T09:32:55.958Z,95121.81
2023-04-07T09:35:24.820Z,95129.53
2023-04-07T09:38:04.013Z,95060.13
2023-04-07T09:40:33.770Z,95132.59
2023-04-07T09:43:02.976Z,95131.63
2023-04-07T09:45:35.025Z,95128.59
2023-04-07T09:48:07.771Z,95138.25
2023-04-07T09:50:37.182Z,95128.88
2023-04-07T09:53:05.229Z,95103.53
2023-04-07T09:55:35.131Z,95140.38
2023-04-07T09:58:06.465Z,95106.31
2023-04-07T10:00:34.970Z,95142.94
2023-04-07T10:03:04.797Z,95148.56
2023-04-07T10:05:33.874Z,95093.28
2023-04-07T10:08:03.570Z,95141.81
2023-04-07T10:10:32.810Z,95141.16
2023-04-07T10:13:06.006Z,95147.25
2023-04-07T10:15:34.649Z,95145.84
2023-04-07T10:18:07.612Z,95139.13
2023-04-07T10:20:41.095Z,95140.16
2023-04-07T10:23:20.392Z,95140.91
2023-04-07T10:25:52.704Z,95146.69
2023-04-07T10:28:24.426Z,94976.88
2023-04-07T10:30:53.175Z,95136.53
2023-04-07T10:33:46.641Z,95133.13
2023-04-07T10:36:14.945Z,95149.59
2023-04-07T10:38:43.432Z,95150.09
2023-04-07T10:41:33.469Z,95150.72
2023-04-07T10:44:03.902Z,95152.41
2023-04-07T10:47:11.246Z,95152.16
2023-04-07T10:49:39.165Z,95139.72
2023-04-07T10:52:26.112Z,95145.78
2023-04-07T10:55:31.654Z,95152.31
2023-04-07T10:58:28.951Z,95142.28
2023-04-07T11:01:28.403Z,95177.28
2023-04-07T11:03:59.713Z,95158.44
2023-04-07T11:06:27.966Z,95157.88
2023-04-07T11:08:56.243Z,95161.97
2023-04-07T11:11:39.969Z,95169.88
2023-04-07T11:14:08.251Z,95102.13
2023-04-07T11:16:39.979Z,95167.44
2023-04-07T11:19:08.341Z,95166.59
2023-04-07T11:21:37.053Z,95158.44
2023-04-07T11:24:05.837Z,95168.69
2023-04-07T11:26:40.449Z,95152.69
2023-04-07T11:29:09.218Z,95163.84
2023-04-07T11:31:40.134Z,95154.66
2023-04-07T11:34:09.328Z,95155.53
2023-04-07T11:36:40.810Z,95167.16
2023-04-07T11:39:20.824Z,95165.53
2023-04-07T11:41:50.686Z,95159.03
2023-04-07T11:44:18.856Z,95180.66
2023-04-07T11:46:58.986Z,95172.97
2023-04-07T11:49:29.189Z,95172.38
2023-04-07T11:52:01.912Z,95165.03
2023-04-07T11:54:41.183Z,95156.34
2023-04-07T11:57:12.165Z,95168.97
2023-04-07T11:59:40.956Z,95174.22
2023-04-07T12:02:10.687Z,95171.44
2023-04-07T12:04:40.772Z,95166.81
2023-04-07T12:07:13.460Z,95149.03
2023-04-07T12:09:41.799Z,95163.38
2023-04-07T12:12:10.801Z,95162.59
2023-04-07T12:14:39.433Z,95155.38
2023-04-07T12:17:10.607Z,95167.41
2023-04-07T12:19:40.093Z,95158.09
2023-04-07T12:22:10.295Z,95169.44
2023-04-07T12:24:38.199Z,95165.41
2023-04-07T12:27:06.232Z,95131.72
2023-04-07T12:29:35.296Z,95144.47
2023-04-07T12:32:03.665Z,95171.63
2023-04-07T12:34:31.792Z,95175.03
2023-04-07T12:37:01.432Z,95146.88
2023-04-07T12:39:29.423Z,95156.34
2023-04-07T12:41:58.301Z,95152.66
2023-04-07T12:44:28.636Z,95165.13
2023-04-07T12:46:56.572Z,95137.97
2023-04-07T12:49:24.520Z,95165.50
2023-04-07T12:51:52.792Z,95168.34
2023-04-07T12:54:23.008Z,95150.59
2023-04-07T12:56:51.809Z,95149.59
2023-04-07T12:59:19.846Z,95160.72
2023-04-07T13:01:50.645Z,95170.41
2023-04-07T13:04:19.596Z,95171.59
2023-04-07T13:06:48.596Z,95175.84
2023-04-07T13:09:16.628Z,95183.91
2023-04-07T13:11:45.946Z,95175.13
2023-04-07T13:14:15.127Z,95179.06
2023-04-07T13:16:43.613Z,95176.66
2023-04-07T13:19:11.655Z,95169.00
2023-04-07T13:24:11.003Z,95175.53
2023-04-07T13:26:38.975Z,95172.88
2023-04-07T13:29:09.184Z,95171.53
2023-04-07T13:31:37.328Z,95136.19
2023-04-07T13:34:06.482Z,95123.44
2023-04-07T13:36:34.511Z,95183.13
2023-04-07T13:39:02.522Z,95183.53
2023-04-07T13:41:30.966Z,95199.66
2023-04-07T13:43:59.515Z,95200.06
2023-04-07T13:46:31.321Z,95193.97
2023-04-07T13:48:59.329Z,95202.38
2023-04-07T13:51:28.188Z,95204.69
2023-04-07T13:53:56.284Z,95202.28
2023-04-07T13:56:24.822Z,95206.00
2023-04-07T13:58:52.757Z,95212.34
2023-04-07T14:01:20.931Z,95208.13
2023-04-07T14:03:50.744Z,95221.69
2023-04-07T14:06:18.957Z,95199.91
2023-04-07T14:08:47.421Z,95214.25
2023-04-07T14:11:18.880Z,95228.00
2023-04-07T14:13:46.987Z,95217.09
2023-04-07T14:16:15.266Z,95226.13
2023-04-07T14:18:43.557Z,95229.94
2023-04-07T14:21:12.836Z,95231.94
2023-04-07T14:23:40.840Z,95237.31
2023-04-07T14:26:12.333Z,95214.44
2023-04-07T14:28:40.702Z,95230.22
2023-04-07T14:31:14.282Z,95215.53
2023-04-07T14:33:42.398Z,95233.59
2023-04-07T14:36:10.706Z,95242.16
2023-04-07T14:38:40.095Z,95241.53
2023-04-07T14:41:10.264Z,95234.69
2023-04-07T14:43:39.090Z,95236.91
2023-04-07T14:46:07.272Z,95240.44
2023-04-07T14:48:35.486Z,95237.09
2023-04-07T14:51:09.598Z,95241.63
2023-04-07T14:53:39.607Z,95232.91
2023-04-07T14:56:08.490Z,95246.88
2023-04-07T14:58:39.073Z,95253.22
2023-04-07T15:01:07.501Z,95245.31
2023-04-07T15:03:36.870Z,95257.00
2023-04-07T15:06:08.569Z,95207.22
2023-04-07T15:08:36.606Z,95186.69
2023-04-07T15:11:07.444Z,95259.81
2023-04-07T15:13:36.382Z,95272.34
2023-04-07T15:16:08.890Z,95254.78
2023-04-07T15:18:37.026Z,95261.41
2023-04-07T15:21:05.172Z,95259.69
2023-04-07T15:23:33.300Z,95261.09
2023-04-07T15:26:01.485Z,95257.94
2023-04-07T15:28:30.882Z,95265.38
2023-04-07T15:30:59.020Z,95270.25
2023-04-07T15:33:27.336Z,95265.63
2023-04-07T15:35:55.552Z,95262.19
2023-04-07T15:38:23.608Z,95264.22
2023-04-07T15:40:51.760Z,95253.31
2023-04-07T15:43:19.739Z,95271.47
2023-04-07T15:45:49.542Z,95271.63
2023-04-07T15:48:18.133Z,95270.72
2023-04-07T15:50:46.255Z,95264.22
2023-04-07T15:53:14.568Z,95269.06
2023-04-07T15:55:44.296Z,95276.38
2023-04-07T15:58:12.403Z,95281.25
2023-04-07T16:00:41.234Z,95259.59
2023-04-07T16:03:10.889Z,95275.88
2023-04-07T16:05:39.227Z,95283.13
2023-04-07T16:08:07.353Z,95265.56
2023-04-07T16:10:35.347Z,95288.31
2023-04-07T16:13:03.387Z,95239.63
2023-04-07T16:15:39.902Z,95298.44
2023-04-07T16:18:14.201Z,95301.59
2023-04-07T16:20:42.285Z,95307.22
2023-04-07T16:23:10.638Z,95310.63
2023-04-07T16:25:38.647Z,95308.59
2023-04-07T16:28:06.822Z,95300.69
2023-04-07T16:30:34.965Z,95310.34
2023-04-07T16:33:03.450Z,95307.81
2023-04-07T16:35:33.013Z,95312.69
2023-04-07T16:38:04.832Z,95322.13
2023-04-07T16:40:33.956Z,95280.22
2023-04-07T16:43:02.187Z,95321.94
2023-04-07T16:45:30.201Z,95324.94
2023-04-07T16:47:58.228Z,95290.75
2023-04-07T16:50:26.330Z,95327.16
2023-04-07T16:52:59.870Z,95332.31
2023-04-07T16:55:27.966Z,95293.03
2023-04-07T16:57:56.058Z,95340.34
2023-04-07T17:00:26.570Z,95341.41
2023-04-07T17:02:55.074Z,95335.03
2023-04-07T17:05:24.076Z,95346.63
2023-04-07T17:07:52.142Z,95345.03
2023-04-07T17:10:21.748Z,95354.81
2023-04-07T17:12:54.429Z,95355.44
2023-04-07T17:15:22.645Z,95347.03
2023-04-07T17:17:51.226Z,95337.66
2023-04-07T17:20:19.336Z,95347.19
2023-04-07T17:22:49.088Z,95365.78
2023-04-07T17:25:19.016Z,95365.19
2023-04-07T17:27:49.215Z,95372.44
2023-04-07T17:30:18.441Z,95362.81
2023-04-07T17:32:46.434Z,95368.19
2023-04-07T17:35:14.363Z,95373.09
2023-04-07T17:37:42.574Z,95380.06
2023-04-07T17:40:11.627Z,95373.34
2023-04-07T17:42:39.936Z,95378.22
2023-04-07T17:45:11.016Z,95354.59
2023-04-07T17:47:39.039Z,95377.75
2023-04-07T17:50:08.310Z,95332.13
2023-04-07T17:52:36.566Z,95387.75
2023-04-07T17:55:04.748Z,95398.09
2023-04-07T17:57:33.790Z,95393.16
2023-04-07T18:00:01.857Z,95385.19
2023-04-07T18:02:31.672Z,95386.13
2023-04-07T18:05:01.531Z,95405.50
2023-04-07T18:07:29.977Z,95409.97
2023-04-07T18:09:58.766Z,95406.66
2023-04-07T18:12:26.912Z,95417.25
2023-04-07T18:14:54.900Z,95415.88
2023-04-07T18:17:22.911Z,95423.19
2023-04-07T18:19:52.452Z,95429.53
2023-04-07T18:22:20.716Z,95425.56
2023-04-07T18:24:48.637Z,95413.66
2023-04-07T18:27:16.711Z,95423.34
2023-04-07T18:29:44.796Z,95432.69
2023-04-07T18:32:13.045Z,95427.63
2023-04-07T18:34:41.309Z,95427.16
2023-04-07T18:37:10.694Z,95417.16
2023-04-07T18:39:38.767Z,95435.38
2023-04-07T18:42:06.863Z,95437.69
2023-04-07T18:44:35.117Z,95410.13
2023-04-07T18:47:03.240Z,95431.53
2023-04-07T18:49:31.313Z,95429.94
2023-04-07T18:51:59.942Z,95435.09
2023-04-07T18:54:32.362Z,95434.03
2023-04-07T18:57:00.546Z,95433.13
2023-04-07T18:59:28.553Z,95436.47
2023-04-07T19:01:57.247Z,95410.81
2023-04-07T19:04:26.003Z,95436.84
2023-04-07T19:06:54.446Z,95432.75
2023-04-07T19:09:23.092Z,95428.31
2023-04-07T19:11:52.614Z,95437.06
2023-04-07T19:14:20.708Z,95432.44
2023-04-07T19:16:51.013Z,95410.03
2023-04-07T19:19:19.175Z,95427.94
2023-04-07T19:21:47.229Z,95436.09
2023-04-07T19:24:18.960Z,95434.13
2023-04-07T19:26:47.165Z,95437.53
2023-04-07T19:29:16.546Z,95440.09
2023-04-07T19:31:45.205Z,95404.63
2023-04-07T19:34:15.595Z,95434.25
2023-04-07T19:36:43.621Z,95429.38
2023-04-07T19:39:11.775Z,95432.44
2023-04-07T19:41:42.303Z,95431.59
2023-04-07T19:44:10.473Z,95428.91
2023-04-07T19:46:39.884Z,95438.03
2023-04-07T19:49:07.926Z,95432.31
2023-04-07T19:51:36.506Z,95436.09
2023-04-07T19:54:04.609Z,95438.31
2023-04-07T19:56:32.557Z,95275.50
2023-04-07T19:59:00.514Z,95445.31
2023-04-07T20:01:28.968Z,95439.16
2023-04-07T20:03:58.446Z,95439.63
2023-04-07T20:06:27.364Z,95437.75
2023-04-07T20:08:55.690Z,95424.03
2023-04-07T20:11:23.667Z,95433.13
2023-04-07T20:13:51.734Z,95442.72
2023-04-07T20:16:22.371Z,95446.91
2023-04-07T20:18:52.083Z,95384.75
2023-04-07T20:21:21.822Z,95347.03
2023-04-07T20:23:49.869Z,95446.47
2023-04-07T20:26:17.991Z,95450.41
2023-04-07T20:28:45.957Z,95385.06
2023-04-07T20:31:14.039Z,95455.16
2023-04-07T20:33:42.507Z,95451.06
2023-04-07T20:36:10.694Z,95423.59
2023-04-07T20:38:43.711Z,95455.94
2023-04-07T20:41:13.594Z,95444.84
2023-04-07T20:43:41.746Z,95438.03
2023-04-07T20:46:09.895Z,95452.00
2023-04-07T20:48:38.222Z,95444.53
2023-04-07T20:51:06.120Z,95452.31
2023-04-07T20:53:34.047Z,95437.78
2023-04-07T20:56:03.525Z,95441.16
2023-04-07T20:58:31.830Z,95453.47
2023-04-07T21:01:00.978Z,95458.16
2023-04-07T21:03:31.035Z,95397.94
2023-04-07T21:05:59.116Z,95461.75
2023-04-07T21:08:27.177Z,95461.16
2023-04-07T21:10:56.012Z,95465.88
2023-04-07T21:13:27.225Z,95449.63
2023-04-07T21:15:55.343Z,95449.31
2023-04-07T21:18:23.376Z,95457.66
2023-04-07T21:20:51.488Z,95441.38
2023-04-07T21:23:19.544Z,95436.13
2023-04-07T21:25:47.765Z,95465.59
2023-04-07T21:28:15.783Z,95466.56
2023-04-07T21:30:45.221Z,95463.53
2023-04-07T21:33:14.209Z,95466.91
2023-04-07T21:35:42.321Z,95466.31
2023-04-07T21:38:10.349Z,95469.88
2023-04-07T21:40:38.320Z,95470.00
2023-04-07T21:43:06.773Z,95477.00
2023-04-07T21:45:34.971Z,95433.47
2023-04-07T21:48:04.528Z,95454.78
2023-04-07T21:50:32.867Z,95445.47
2023-04-07T21:53:00.834Z,95465.81
2023-04-07T21:55:28.837Z,95464.03
2023-04-07T21:57:58.157Z,95465.47
2023-04-07T22:00:26.281Z,95466.19
2023-04-07T22:02:54.828Z,95480.31
2023-04-07T22:05:24.420Z,95475.13
2023-04-07T22:07:52.644Z,95473.56
2023-04-07T22:10:20.601Z,95473.94
2023-04-07T22:12:48.578Z,95480.16
2023-04-07T22:15:16.645Z,95472.03
2023-04-07T22:17:45.196Z,95483.63
2023-04-07T22:20:13.486Z,95481.63
2023-04-07T22:22:44.011Z,95468.34
2023-04-07T22:25:12.124Z,95472.13
2023-04-07T22:27:40.151Z,95470.81
2023-04-07T22:30:10.941Z,95477.06
2023-04-07T22:32:38.956Z,95478.22
2023-04-07T22:35:07.291Z,95457.22
2023-04-07T22:37:35.385Z,95473.09
2023-04-07T22:40:05.079Z,95475.75
2023-04-07T22:42:33.046Z,95473.84
2023-04-07T22:45:01.010Z,95466.84
2023-04-07T22:47:29.027Z,95422.44
2023-04-07T22:49:58.328Z,95416.19
2023-04-07T22:52:26.308Z,95466.94
2023-04-07T22:54:54.215Z,95464.66
2023-04-07T22:57:23.567Z,95466.72
2023-04-07T22:59:51.569Z,95462.34
2023-04-07T23:02:19.617Z,95407.59
2023-04-07T23:04:47.680Z,95459.88
2023-04-07T23:07:16.097Z,95477.41
2023-04-07T23:09:44.034Z,95461.28
2023-04-07T23:12:11.965Z,95460.41
2023-04-07T23:14:41.420Z,95449.19
2023-04-07T23:17:09.440Z,95432.97
2023-04-07T23:19:37.455Z,95457.84
2023-04-07T23:22:05.437Z,95447.72
2023-04-07T23:24:33.385Z,95445.53
2023-04-07T23:27:02.045Z,95439.72
2023-04-07T23:29:29.984Z,95435.66
2023-04-07T23:31:59.396Z,95425.75
2023-04-07T23:34:27.462Z,95418.88
2023-04-07T23:36:55.427Z,95369.94
2023-04-07T23:39:23.458Z,95419.50
2023-04-07T23:41:53.046Z,95428.72
2023-04-07T23:44:21.801Z,95412.66
2023-04-07T23:46:49.789Z,95407.50
2023-04-07T23:49:19.241Z,95403.16
2023-04-07T23:51:47.441Z,95425.06
2023-04-07T23:54:15.356Z,95394.84
2023-04-07T23:56:45.915Z,95423.38
2023-04-07T23:59:14.026Z,95395.31
